Time;durP1;ratioP1;P1;durP2;ratioP2;P2;SDS_P1;SDS_P2;PMS_P1;PMS_P2;Temp;Humidity;BMP_temperature;BMP_pressure;BME280_temperature;BME280_humidity;BME280_pressure;Samples;Min_cycle;Max_cycle;Signal;HPM_P1;HPM_P2
2021/12/31 00:01:14;;;;;;;17.00;10.35;;;;;;;;;;6266611;28;20128;-63
2021/12/31 00:04:15;;;;;;;16.88;10.32;;;;;;;;;;6264436;28;20052;-59
2021/12/31 00:07:16;;;;;;;16.77;9.82;;;;;;;;;;6264904;28;20579;-60
2021/12/31 00:10:17;;;;;;;16.75;10.02;;;;;;;;;;6266594;28;20114;-57
2021/12/31 00:13:17;;;;;;;17.02;9.98;;;;;;;;;;6268734;28;20800;-57
2021/12/31 00:16:18;;;;;;;17.77;10.38;;;;;;;;;;6262076;28;20915;-61
2021/12/31 00:19:19;;;;;;;19.50;11.20;;;;;;;;;;6263491;28;20059;-57
2021/12/31 00:25:27;;;;;;;18.25;10.60;;;;;;;;;;6260833;28;20045;-62
2021/12/31 00:28:28;;;;;;;18.08;10.18;;;;;;;;;;6264506;28;20495;-61
2021/12/31 00:31:29;;;;;;;19.77;11.20;;;;;;;;;;6261626;28;20047;-52
2021/12/31 00:34:29;;;;;;;18.30;10.75;;;;;;;;;;6265525;28;20049;-60
2021/12/31 00:37:32;;;;;;;18.58;11.13;;;;;;;;;;6264922;28;20509;-53
2021/12/31 00:40:34;;;;;;;20.67;11.95;;;;;;;;;;6263017;28;20055;-55
2021/12/31 00:43:35;;;;;;;22.77;12.57;;;;;;;;;;6266254;28;20076;-58
2021/12/31 00:46:35;;;;;;;21.55;12.20;;;;;;;;;;6262496;28;20176;-62
2021/12/31 00:49:36;;;;;;;20.15;13.20;;;;;;;;;;6266154;28;20070;-54
2021/12/31 00:52:37;;;;;;;21.45;13.15;;;;;;;;;;6268308;28;20064;-58
2021/12/31 00:55:37;;;;;;;22.95;13.55;;;;;;;;;;6270045;28;20064;-53
2021/12/31 00:58:38;;;;;;;21.88;13.05;;;;;;;;;;6271066;28;20079;-58
2021/12/31 01:01:39;;;;;;;22.58;13.48;;;;;;;;;;6268383;28;20059;-58
2021/12/31 01:04:39;;;;;;;23.42;13.25;;;;;;;;;;6268013;28;20043;-62
2021/12/31 01:07:41;;;;;;;21.60;13.73;;;;;;;;;;6269001;28;20055;-62
2021/12/31 01:10:42;;;;;;;23.13;13.67;;;;;;;;;;6267149;28;20534;-62
2021/12/31 01:13:59;;;;;;;24.48;14.60;;;;;;;;;;6270616;28;20048;-61
2021/12/31 01:17:04;;;;;;;24.02;14.20;;;;;;;;;;6268010;28;20494;-61
2021/12/31 01:20:05;;;;;;;25.45;14.80;;;;;;;;;;6270211;28;20116;-62
2021/12/31 01:23:08;;;;;;;25.77;14.32;;;;;;;;;;6270813;28;20471;-59
2021/12/31 01:26:09;;;;;;;25.67;14.27;;;;;;;;;;6266206;28;20063;-59
2021/12/31 01:29:10;;;;;;;24.27;14.40;;;;;;;;;;6268779;28;20073;-61
2021/12/31 01:32:11;;;;;;;25.45;14.30;;;;;;;;;;6245324;28;20061;-59
2021/12/31 01:35:13;;;;;;;23.35;13.32;;;;;;;;;;6266474;28;20052;-61
2021/12/31 01:38:15;;;;;;;;;;;;;;;;;;6267661;28;20084;-61
2021/12/31 01:41:16;;;;;;;21.33;12.82;;;;;;;;;;6265084;28;19963;-59
2021/12/31 01:44:17;;;;;;;22.83;13.35;;;;;;;;;;6268652;28;20044;-58
2021/12/31 01:47:22;;;;;;;23.58;13.95;;;;;;;;;;6265893;28;20088;-57
2021/12/31 01:50:28;;;;;;;25.17;14.48;;;;;;;;;;6266748;28;20052;-55
2021/12/31 01:53:31;;;;;;;24.67;15.43;;;;;;;;;;6266709;28;20041;-61
2021/12/31 01:56:34;;;;;;;22.90;13.70;;;;;;;;;;6264238;28;20579;-55
2021/12/31 01:59:37;;;;;;;23.45;14.10;;;;;;;;;;6268946;28;20103;-60
2021/12/31 02:02:39;;;;;;;23.00;12.57;;;;;;;;;;6268376;28;20048;-62
2021/12/31 02:05:40;;;;;;;;;;;;;;;;;;6264983;28;20088;-52
2021/12/31 02:08:40;;;;;;;20.50;12.35;;;;;;;;;;6268121;28;20328;-59
2021/12/31 02:11:41;;;;;;;19.77;12.90;;;;;;;;;;6261273;28;20129;-60
2021/12/31 02:14:42;;;;;;;24.08;12.93;;;;;;;;;;6276155;28;20132;-59
2021/12/31 02:17:47;;;;;;;22.35;12.68;;;;;;;;;;6281745;28;20049;-58
2021/12/31 02:20:49;;;;;;;23.33;13.90;;;;;;;;;;6269761;28;20148;-56
2021/12/31 02:23:56;;;;;;;21.85;12.88;;;;;;;;;;6270891;28;20074;-61
2021/12/31 02:26:58;;;;;;;22.30;13.10;;;;;;;;;;6261265;28;20060;-52
2021/12/31 02:29:59;;;;;;;22.35;13.25;;;;;;;;;;6271000;28;20128;-53
2021/12/31 02:33:02;;;;;;;21.88;12.68;;;;;;;;;;6270561;28;20106;-57
2021/12/31 02:36:05;;;;;;;23.85;13.65;;;;;;;;;;6281978;28;20045;-61
2021/12/31 02:39:06;;;;;;;24.55;13.32;;;;;;;;;;6292614;28;20076;-62
2021/12/31 02:42:08;;;;;;;24.87;13.60;;;;;;;;;;6292247;28;20090;-62
2021/12/31 02:45:11;;;;;;;21.55;12.73;;;;;;;;;;6286647;28;20385;-62
2021/12/31 02:48:12;;;;;;;20.23;12.50;;;;;;;;;;6271540;28;20049;-60
2021/12/31 02:51:13;;;;;;;25.38;12.70;;;;;;;;;;6271438;28;20519;-59
2021/12/31 02:54:15;;;;;;;22.75;12.18;;;;;;;;;;6272619;28;20041;-59
2021/12/31 02:57:20;;;;;;;20.00;11.50;;;;;;;;;;6270544;28;20051;-58
2021/12/31 03:00:21;;;;;;;18.88;10.70;;;;;;;;;;6268871;28;20458;-55
2021/12/31 03:03:22;;;;;;;18.70;10.05;;;;;;;;;;6269114;28;20045;-57
2021/12/31 03:06:24;;;;;;;17.45;10.25;;;;;;;;;;6272450;28;20068;-56
2021/12/31 03:09:25;;;;;;;18.17;10.88;;;;;;;;;;6269920;28;20133;-60
2021/12/31 03:12:25;;;;;;;16.95;9.90;;;;;;;;;;6269254;28;20392;-61
2021/12/31 03:15:26;;;;;;;17.20;9.48;;;;;;;;;;6268907;28;20095;-58
2021/12/31 03:18:28;;;;;;;16.98;10.00;;;;;;;;;;6270286;28;20380;-55
2021/12/31 03:21:30;;;;;;;16.20;9.55;;;;;;;;;;6270130;28;20392;-55
2021/12/31 03:24:32;;;;;;;16.45;9.63;;;;;;;;;;6268550;28;20047;-57
2021/12/31 03:27:33;;;;;;;17.30;10.10;;;;;;;;;;6269898;28;20403;-59
2021/12/31 03:30:34;;;;;;;16.58;9.27;;;;;;;;;;6271807;28;20064;-61
2021/12/31 03:33:34;;;;;;;15.13;9.63;;;;;;;;;;6268877;28;20483;-59
2021/12/31 03:36:36;;;;;;;14.38;9.15;;;;;;;;;;6269873;28;20091;-61
2021/12/31 03:39:36;;;;;;;15.48;9.68;;;;;;;;;;6279321;28;20064;-52
2021/12/31 03:42:37;;;;;;;15.30;8.95;;;;;;;;;;6275134;28;20048;-56
2021/12/31 03:45:40;;;;;;;17.92;10.52;;;;;;;;;;6275533;28;20119;-55
2021/12/31 03:48:41;;;;;;;16.80;10.02;;;;;;;;;;6282295;28;20048;-61
2021/12/31 03:51:41;;;;;;;14.70;9.07;;;;;;;;;;6278641;28;20129;-62
2021/12/31 03:54:42;;;;;;;15.23;9.20;;;;;;;;;;6274702;28;20129;-61
2021/12/31 03:57:43;;;;;;;14.73;8.35;;;;;;;;;;6276752;28;20560;-57
2021/12/31 04:00:45;;;;;;;14.25;8.45;;;;;;;;;;6279155;28;20176;-56
2021/12/31 04:03:46;;;;;;;14.95;8.80;;;;;;;;;;6290145;28;20044;-59
2021/12/31 04:06:47;;;;;;;14.95;8.27;;;;;;;;;;6290796;28;20494;-58
2021/12/31 04:09:47;;;;;;;13.25;8.32;;;;;;;;;;6289238;28;20099;-58
2021/12/31 04:12:48;;;;;;;15.50;8.50;;;;;;;;;;6277101;28;20048;-54
2021/12/31 04:15:49;;;;;;;12.55;7.80;;;;;;;;;;6275201;28;20052;-53
2021/12/31 04:18:50;;;;;;;15.32;8.07;;;;;;;;;;6257755;28;20052;-57
2021/12/31 04:21:50;;;;;;;16.73;8.93;;;;;;;;;;6279255;28;20418;-59
2021/12/31 04:24:52;;;;;;;15.77;8.50;;;;;;;;;;6278664;28;20048;-57
2021/12/31 04:27:53;;;;;;;14.02;9.10;;;;;;;;;;6284277;28;20147;-57
2021/12/31 04:30:55;;;;;;;15.43;8.60;;;;;;;;;;6281190;28;20060;-61
2021/12/31 04:33:55;;;;;;;15.25;8.77;;;;;;;;;;6280533;28;20411;-61
2021/12/31 04:36:57;;;;;;;15.10;9.20;;;;;;;;;;6281816;28;20057;-55
2021/12/31 04:39:57;;;;;;;13.82;8.77;;;;;;;;;;6284316;28;20066;-56
2021/12/31 04:42:58;;;;;;;16.27;9.25;;;;;;;;;;6288753;28;20048;-56
2021/12/31 04:45:59;;;;;;;16.48;10.15;;;;;;;;;;6283433;28;20091;-56
2021/12/31 04:48:59;;;;;;;16.42;9.63;;;;;;;;;;6289897;28;20075;-59
2021/12/31 04:52:00;;;;;;;16.48;9.30;;;;;;;;;;6278120;28;20037;-58
2021/12/31 04:55:01;;;;;;;17.08;9.32;;;;;;;;;;6281516;28;20047;-61
2021/12/31 04:58:01;;;;;;;18.65;10.35;;;;;;;;;;6280141;28;20052;-59
2021/12/31 05:01:02;;;;;;;20.20;11.77;;;;;;;;;;6282912;28;20102;-58
2021/12/31 05:04:04;;;;;;;20.15;11.07;;;;;;;;;;6282961;28;20127;-61
2021/12/31 05:07:05;;;;;;;19.42;11.27;;;;;;;;;;6284115;28;20048;-62
2021/12/31 05:10:06;;;;;;;18.10;10.38;;;;;;;;;;6282123;28;20052;-54
2021/12/31 05:13:09;;;;;;;18.15;10.50;;;;;;;;;;6283752;28;20051;-60
2021/12/31 05:16:10;;;;;;;;;;;;;;;;;;6282082;28;20171;-61
2021/12/31 05:19:10;;;;;;;16.27;9.60;;;;;;;;;;6279718;28;19931;-61
2021/12/31 05:22:11;;;;;;;18.60;10.05;;;;;;;;;;6283314;28;20048;-58
2021/12/31 05:25:13;;;;;;;17.02;9.98;;;;;;;;;;6282186;28;20048;-55
2021/12/31 05:28:13;;;;;;;16.42;9.50;;;;;;;;;;6282430;28;20124;-55
2021/12/31 05:31:15;;;;;;;19.50;10.93;;;;;;;;;;6281572;28;20051;-56
2021/12/31 05:34:16;;;;;;;19.38;11.15;;;;;;;;;;6280209;28;20056;-58
2021/12/31 05:37:17;;;;;;;17.42;10.80;;;;;;;;;;6274644;28;20475;-60
2021/12/31 05:40:18;;;;;;;17.17;10.50;;;;;;;;;;6279999;28;20051;-59
2021/12/31 05:43:19;;;;;;;17.23;9.55;;;;;;;;;;6277745;28;20055;-55
2021/12/31 05:46:19;;;;;;;18.10;10.93;;;;;;;;;;6281221;28;20055;-56
2021/12/31 05:49:20;;;;;;;18.17;10.13;;;;;;;;;;6286854;28;20045;-62
2021/12/31 05:52:21;;;;;;;18.33;10.50;;;;;;;;;;6281176;28;20439;-57
2021/12/31 05:55:22;;;;;;;17.17;10.02;;;;;;;;;;6286856;28;20053;-60
2021/12/31 05:58:23;;;;;;;17.83;9.52;;;;;;;;;;6281003;28;20058;-63
2021/12/31 06:01:24;;;;;;;18.05;10.63;;;;;;;;;;6278209;28;20144;-57
2021/12/31 06:04:24;;;;;;;18.17;10.43;;;;;;;;;;6279296;28;20503;-61
2021/12/31 06:07:25;;;;;;;18.48;9.77;;;;;;;;;;6278114;28;20126;-63
2021/12/31 06:10:26;;;;;;;16.52;9.50;;;;;;;;;;6281030;28;20388;-58
2021/12/31 06:13:27;;;;;;;16.27;10.18;;;;;;;;;;6280587;28;20055;-57
2021/12/31 06:16:29;;;;;;;16.90;10.15;;;;;;;;;;6280856;28;20127;-59
2021/12/31 06:19:30;;;;;;;18.10;10.10;;;;;;;;;;6291735;28;20052;-57
2021/12/31 06:22:31;;;;;;;17.45;9.98;;;;;;;;;;6288925;28;20075;-59
2021/12/31 06:25:33;;;;;;;18.73;11.10;;;;;;;;;;6277939;28;20045;-64
2021/12/31 06:28:33;;;;;;;20.53;11.50;;;;;;;;;;6277307;28;20580;-58
2021/12/31 06:31:34;;;;;;;18.85;11.82;;;;;;;;;;6284617;28;20057;-59
2021/12/31 06:34:35;;;;;;;20.00;11.05;;;;;;;;;;6288424;28;20575;-57
2021/12/31 06:37:36;;;;;;;20.27;11.60;;;;;;;;;;6289296;28;20049;-59
2021/12/31 06:40:38;;;;;;;18.83;11.90;;;;;;;;;;6293249;28;20044;-58
2021/12/31 06:43:39;;;;;;;20.67;11.63;;;;;;;;;;6281509;28;20549;-58
2021/12/31 06:46:40;;;;;;;20.60;11.20;;;;;;;;;;6290002;28;20055;-59
2021/12/31 06:49:42;;;;;;;20.73;11.73;;;;;;;;;;6280691;28;20064;-59
2021/12/31 06:52:43;;;;;;;21.85;11.60;;;;;;;;;;6280507;28;20041;-59
2021/12/31 06:55:44;;;;;;;21.30;12.02;;;;;;;;;;6282928;28;20448;-59
2021/12/31 06:58:45;;;;;;;22.80;12.35;;;;;;;;;;6281935;28;20127;-61
2021/12/31 07:01:46;;;;;;;24.77;14.90;;;;;;;;;;6288741;28;20076;-59
2021/12/31 07:04:46;;;;;;;22.45;12.15;;;;;;;;;;6278769;28;20037;-58
2021/12/31 07:07:47;;;;;;;23.17;13.70;;;;;;;;;;6269419;28;20041;-59
2021/12/31 07:10:48;;;;;;;21.40;12.20;;;;;;;;;;6289851;28;20139;-58
2021/12/31 07:13:50;;;;;;;23.67;12.98;;;;;;;;;;6283377;28;20554;-62
2021/12/31 07:16:50;;;;;;;24.13;13.40;;;;;;;;;;6288619;28;20372;-58
2021/12/31 07:19:51;;;;;;;26.60;13.88;;;;;;;;;;6291590;28;20105;-59
2021/12/31 07:22:51;;;;;;;25.50;12.88;;;;;;;;;;6277470;28;20120;-59
2021/12/31 07:25:52;;;;;;;26.25;13.45;;;;;;;;;;6286104;28;20094;-59
2021/12/31 07:28:53;;;;;;;23.83;13.40;;;;;;;;;;6289674;28;20387;-56
2021/12/31 07:31:53;;;;;;;23.10;13.38;;;;;;;;;;6285444;28;20523;-59
2021/12/31 07:34:54;;;;;;;22.83;12.95;;;;;;;;;;6290416;28;20101;-59
2021/12/31 07:37:56;;;;;;;24.83;12.95;;;;;;;;;;6287063;28;20101;-58
2021/12/31 07:40:56;;;;;;;21.15;12.05;;;;;;;;;;6291988;28;20868;-59
2021/12/31 07:43:57;;;;;;;23.55;12.75;;;;;;;;;;6276360;28;20115;-59
2021/12/31 07:46:58;;;;;;;25.60;13.60;;;;;;;;;;6284938;28;20048;-59
2021/12/31 07:49:59;;;;;;;24.58;12.95;;;;;;;;;;6279340;28;20076;-60
2021/12/31 07:53:00;;;;;;;24.35;13.27;;;;;;;;;;6280442;28;20040;-60
2021/12/31 07:56:00;;;;;;;23.73;13.75;;;;;;;;;;6286364;28;20072;-59
2021/12/31 07:59:02;;;;;;;25.40;15.23;;;;;;;;;;6282189;28;20140;-59
2021/12/31 08:02:03;;;;;;;27.98;16.00;;;;;;;;;;6283772;28;20423;-60
2021/12/31 08:05:04;;;;;;;26.30;15.75;;;;;;;;;;6282833;28;20171;-58
2021/12/31 08:08:06;;;;;;;27.10;14.82;;;;;;;;;;6278711;28;20457;-59
2021/12/31 08:11:06;;;;;;;29.67;16.65;;;;;;;;;;6291157;28;20048;-59
2021/12/31 08:14:07;;;;;;;32.42;16.88;;;;;;;;;;6281428;28;20102;-58
2021/12/31 08:17:08;;;;;;;28.98;16.88;;;;;;;;;;6274810;28;20446;-60
2021/12/31 08:20:09;;;;;;;30.75;15.93;;;;;;;;;;6270944;28;20131;-59
2021/12/31 08:23:11;;;;;;;31.25;16.35;;;;;;;;;;6266391;28;20180;-59
2021/12/31 08:26:12;;;;;;;29.05;15.75;;;;;;;;;;6267726;28;20056;-60
2021/12/31 08:29:13;;;;;;;33.85;17.50;;;;;;;;;;6268795;28;20460;-59
2021/12/31 08:32:14;;;;;;;27.88;16.05;;;;;;;;;;6266740;28;20069;-60
2021/12/31 08:35:15;;;;;;;29.60;15.20;;;;;;;;;;6268888;28;20543;-58
2021/12/31 08:38:16;;;;;;;29.10;15.82;;;;;;;;;;6268287;28;20080;-58
2021/12/31 08:41:16;;;;;;;30.00;15.88;;;;;;;;;;6266821;28;20049;-59
2021/12/31 08:44:17;;;;;;;32.42;17.25;;;;;;;;;;6269643;28;20045;-60
2021/12/31 08:47:18;;;;;;;30.25;16.27;;;;;;;;;;6280852;28;20088;-59
2021/12/31 08:50:18;;;;;;;28.75;16.98;;;;;;;;;;6280046;28;20496;-62
2021/12/31 08:53:19;;;;;;;29.45;17.42;;;;;;;;;;6270647;28;20075;-59
2021/12/31 08:56:20;;;;;;;33.95;20.80;;;;;;;;;;6269949;28;20049;-61
2021/12/31 08:59:20;;;;;;;27.25;15.90;;;;;;;;;;6266998;28;20053;-66
2021/12/31 09:02:21;;;;;;;31.52;17.92;;;;;;;;;;6278430;28;20064;-62
2021/12/31 09:05:22;;;;;;;25.83;14.13;;;;;;;;;;6271108;28;20131;-59
2021/12/31 09:08:23;;;;;;;24.48;15.32;;;;;;;;;;6275314;28;20102;-62
2021/12/31 09:11:24;;;;;;;64.97;34.20;;;;;;;;;;6278196;28;20072;-59
2021/12/31 09:14:25;;;;;;;25.75;15.52;;;;;;;;;;6269876;28;20389;-59
2021/12/31 09:17:26;;;;;;;26.80;15.15;;;;;;;;;;6271357;28;20084;-58
2021/12/31 09:20:28;;;;;;;24.17;14.85;;;;;;;;;;6268575;28;20047;-59
2021/12/31 09:23:29;;;;;;;21.83;13.27;;;;;;;;;;6264400;28;20041;-61
2021/12/31 09:26:30;;;;;;;20.25;12.45;;;;;;;;;;6269060;28;20088;-59
2021/12/31 09:29:30;;;;;;;23.45;12.85;;;;;;;;;;6267243;28;20041;-59
2021/12/31 09:32:31;;;;;;;22.65;13.38;;;;;;;;;;6272137;28;20040;-62
2021/12/31 09:35:33;;;;;;;20.88;12.38;;;;;;;;;;6274121;28;20049;-60
2021/12/31 09:38:34;;;;;;;24.95;12.55;;;;;;;;;;6251441;28;20195;-59
2021/12/31 09:41:35;;;;;;;23.05;12.85;;;;;;;;;;6252009;28;20052;-59
2021/12/31 09:44:37;;;;;;;26.40;15.70;;;;;;;;;;6244916;28;20486;-60
2021/12/31 09:47:41;;;;;;;31.77;19.92;;;;;;;;;;6250677;28;20419;-58
2021/12/31 09:50:45;;;;;;;23.63;14.95;;;;;;;;;;6246038;28;20072;-58
2021/12/31 09:53:45;;;;;;;41.10;29.88;;;;;;;;;;6242168;28;20487;-58
2021/12/31 09:56:46;;;;;;;23.88;14.30;;;;;;;;;;6253577;28;20049;-62
2021/12/31 09:59:47;;;;;;;23.92;12.98;;;;;;;;;;6248922;28;20124;-58
2021/12/31 10:03:11;;;;;;;24.50;13.03;;;;;;;;;;6245901;28;20057;-60
2021/12/31 10:06:14;;;;;;;22.75;12.38;;;;;;;;;;6247174;28;20400;-58
2021/12/31 10:09:19;;;;;;;24.10;12.02;;;;;;;;;;6248790;28;20420;-59
2021/12/31 10:12:19;;;;;;;21.52;12.20;;;;;;;;;;6247504;28;20104;-60
2021/12/31 10:15:24;;;;;;;23.38;12.52;;;;;;;;;;6246063;28;20042;-60
2021/12/31 10:18:36;;;;;;;21.58;12.30;;;;;;;;;;6246947;28;20049;-61
2021/12/31 10:21:50;;;;;;;23.17;12.43;;;;;;;;;;6242920;28;20416;-60
2021/12/31 10:24:51;;;;;;;22.15;12.02;;;;;;;;;;6258903;28;20442;-60
2021/12/31 10:28:08;;;;;;;26.08;15.85;;;;;;;;;;6265287;28;20079;-59
2021/12/31 10:31:17;;;;;;;23.75;16.20;;;;;;;;;;6253776;28;20077;-60
2021/12/31 10:34:36;;;;;;;24.77;14.00;;;;;;;;;;6245310;28;20064;-59
2021/12/31 10:37:45;;;;;;;22.70;13.32;;;;;;;;;;6262712;28;20045;-60
2021/12/31 10:40:46;;;;;;;19.25;11.80;;;;;;;;;;6267103;28;20045;-60
2021/12/31 10:43:57;;;;;;;18.48;11.02;;;;;;;;;;6272305;28;20602;-60
2021/12/31 10:47:12;;;;;;;19.50;10.15;;;;;;;;;;6269830;28;21584;-59
2021/12/31 10:50:15;;;;;;;18.13;10.35;;;;;;;;;;6268598;28;20146;-58
2021/12/31 10:53:32;;;;;;;16.83;10.07;;;;;;;;;;6285902;28;20084;-59
2021/12/31 10:56:40;;;;;;;19.00;10.05;;;;;;;;;;6274425;28;20405;-61
2021/12/31 10:59:41;;;;;;;24.23;14.88;;;;;;;;;;6274505;28;20442;-60
2021/12/31 11:02:42;;;;;;;21.02;12.88;;;;;;;;;;6271340;28;20060;-59
2021/12/31 11:05:43;;;;;;;21.52;11.80;;;;;;;;;;6271802;28;20477;-59
2021/12/31 11:08:45;;;;;;;20.80;11.93;;;;;;;;;;6269542;28;20084;-59
2021/12/31 11:11:48;;;;;;;21.27;11.45;;;;;;;;;;6265830;28;20033;-59
2021/12/31 11:14:49;;;;;;;19.67;13.13;;;;;;;;;;6267244;28;20408;-60
2021/12/31 11:17:52;;;;;;;19.55;12.55;;;;;;;;;;6270278;28;20071;-61
2021/12/31 11:20:55;;;;;;;;;;;;;;;;;;6275810;28;20462;-59
2021/12/31 11:24:30;;;;;;;18.45;10.63;;;;;;;;;;6286636;28;19967;-58
2021/12/31 11:27:37;;;;;;;20.08;10.73;;;;;;;;;;6293184;28;20037;-58
2021/12/31 11:30:43;;;;;;;18.85;10.10;;;;;;;;;;6284716;28;20055;-59
2021/12/31 11:34:10;;;;;;;16.02;9.23;;;;;;;;;;6273346;28;20060;-60
2021/12/31 11:37:51;;;;;;;16.13;10.35;;;;;;;;;;6281998;28;20137;-58
2021/12/31 11:41:09;;;;;;;18.65;10.18;;;;;;;;;;6278890;28;20056;-60
2021/12/31 11:44:13;;;;;;;17.95;10.05;;;;;;;;;;6272200;28;20067;-59
2021/12/31 11:47:16;;;;;;;15.85;9.15;;;;;;;;;;6278584;28;20040;-59
2021/12/31 11:50:25;;;;;;;21.48;12.30;;;;;;;;;;6277167;28;20534;-61
2021/12/31 11:53:26;;;;;;;19.13;10.77;;;;;;;;;;6278549;28;20151;-60
2021/12/31 11:56:32;;;;;;;22.42;12.02;;;;;;;;;;6276972;28;20549;-60
2021/12/31 11:59:43;;;;;;;15.57;9.05;;;;;;;;;;6275490;28;20912;-59
2021/12/31 12:02:43;;;;;;;16.45;9.55;;;;;;;;;;6282965;28;20145;-60
2021/12/31 12:05:44;;;;;;;17.98;10.45;;;;;;;;;;6291564;28;20053;-60
2021/12/31 12:08:50;;;;;;;18.20;10.05;;;;;;;;;;6280458;28;20423;-60
2021/12/31 12:12:16;;;;;;;20.85;10.38;;;;;;;;;;6278276;28;20171;-58
2021/12/31 12:15:19;;;;;;;16.05;10.25;;;;;;;;;;6278355;28;20045;-58
2021/12/31 12:18:55;;;;;;;17.33;11.52;;;;;;;;;;6268741;28;20048;-60
2021/12/31 12:21:56;;;;;;;17.83;10.15;;;;;;;;;;6271119;28;20060;-60
2021/12/31 12:24:58;;;;;;;22.20;11.13;;;;;;;;;;6267534;28;20079;-59
2021/12/31 12:28:06;;;;;;;;;;;;;;;;;;6268962;28;20468;-60
2021/12/31 12:31:16;;;;;;;19.15;10.70;;;;;;;;;;6266377;28;19928;-58
2021/12/31 12:34:28;;;;;;;21.33;11.10;;;;;;;;;;6268096;28;20099;-58
2021/12/31 12:37:29;;;;;;;21.98;12.30;;;;;;;;;;6269858;28;20431;-61
2021/12/31 12:40:39;;;;;;;21.73;11.52;;;;;;;;;;6270424;28;20383;-58
2021/12/31 12:43:48;;;;;;;21.50;11.27;;;;;;;;;;6269754;28;20044;-59
2021/12/31 12:46:53;;;;;;;20.92;11.80;;;;;;;;;;6271321;28;20126;-59
2021/12/31 12:49:57;;;;;;;21.33;11.38;;;;;;;;;;6274989;28;20049;-59
2021/12/31 12:52:58;;;;;;;20.33;12.15;;;;;;;;;;6274258;28;20068;-57
2021/12/31 12:56:08;;;;;;;51.38;29.70;;;;;;;;;;6279600;28;20076;-60
2021/12/31 12:59:10;;;;;;;37.95;26.40;;;;;;;;;;6272844;28;20499;-61
2021/12/31 13:02:10;;;;;;;23.92;12.25;;;;;;;;;;6275267;28;20145;-59
2021/12/31 13:05:16;;;;;;;20.23;11.75;;;;;;;;;;6275744;28;20045;-63
2021/12/31 13:08:17;;;;;;;19.20;11.13;;;;;;;;;;6274840;28;20056;-62
2021/12/31 13:11:19;;;;;;;19.30;11.20;;;;;;;;;;6272944;28;20041;-60
2021/12/31 13:14:26;;;;;;;16.95;9.68;;;;;;;;;;6277823;28;20049;-61
2021/12/31 13:17:27;;;;;;;18.33;9.80;;;;;;;;;;6268044;28;20129;-60
2021/12/31 13:20:30;;;;;;;19.33;9.55;;;;;;;;;;6271330;28;20491;-60
2021/12/31 13:23:31;;;;;;;18.13;9.25;;;;;;;;;;6273617;28;20557;-60
2021/12/31 13:26:34;;;;;;;16.77;9.73;;;;;;;;;;6286656;28;20139;-60
2021/12/31 13:29:40;;;;;;;16.80;9.88;;;;;;;;;;6288357;28;20458;-60
2021/12/31 13:32:43;;;;;;;14.25;8.50;;;;;;;;;;6267995;28;20049;-60
2021/12/31 13:35:43;;;;;;;14.00;8.65;;;;;;;;;;6267337;28;20087;-60
2021/12/31 13:39:04;;;;;;;18.88;10.10;;;;;;;;;;6267804;28;20036;-60
2021/12/31 13:42:12;;;;;;;23.38;12.38;;;;;;;;;;6269393;28;20132;-58
2021/12/31 13:45:19;;;;;;;16.52;10.63;;;;;;;;;;6269770;28;20048;-59
2021/12/31 13:48:20;;;;;;;15.75;10.50;;;;;;;;;;6269446;28;20991;-61
2021/12/31 13:51:30;;;;;;;14.27;8.63;;;;;;;;;;6265109;28;20051;-59
2021/12/31 13:54:40;;;;;;;16.58;9.75;;;;;;;;;;6270157;28;20140;-60
2021/12/31 13:57:52;;;;;;;23.95;12.82;;;;;;;;;;6270323;28;20199;-58
2021/12/31 14:00:53;;;;;;;14.30;7.97;;;;;;;;;;6270891;28;20060;-60
2021/12/31 14:04:12;;;;;;;14.02;8.50;;;;;;;;;;6266775;28;20048;-60
2021/12/31 14:07:19;;;;;;;14.75;8.98;;;;;;;;;;6267805;28;20063;-61
2021/12/31 14:10:24;;;;;;;15.45;8.85;;;;;;;;;;6270295;28;20057;-59
2021/12/31 14:13:24;;;;;;;16.27;9.65;;;;;;;;;;6268236;28;20084;-56
2021/12/31 14:16:25;;;;;;;16.35;9.27;;;;;;;;;;6265398;28;20080;-60
2021/12/31 14:19:26;;;;;;;15.48;9.10;;;;;;;;;;6272291;28;20416;-60
2021/12/31 14:22:26;;;;;;;13.38;8.02;;;;;;;;;;6269861;28;20139;-67
2021/12/31 14:25:39;;;;;;;16.33;9.60;;;;;;;;;;6270286;28;20053;-61
2021/12/31 14:28:40;;;;;;;13.85;8.50;;;;;;;;;;6266356;28;20056;-60
2021/12/31 14:31:40;;;;;;;15.05;8.65;;;;;;;;;;6269518;28;20579;-59
2021/12/31 14:34:41;;;;;;;13.23;8.15;;;;;;;;;;6267991;28;20044;-58
2021/12/31 14:37:42;;;;;;;22.50;11.18;;;;;;;;;;6268491;28;20072;-59
2021/12/31 14:40:48;;;;;;;20.40;10.70;;;;;;;;;;6269532;28;20269;-60
2021/12/31 14:43:58;;;;;;;16.70;8.25;;;;;;;;;;6264306;28;20056;-59
2021/12/31 14:47:00;;;;;;;12.82;7.90;;;;;;;;;;6254131;28;20041;-57
2021/12/31 14:50:01;;;;;;;21.65;11.98;;;;;;;;;;6268414;28;20056;-60
2021/12/31 14:53:03;;;;;;;14.35;8.27;;;;;;;;;;6262731;28;20052;-60
2021/12/31 14:56:03;;;;;;;;;;;;;;;;;;6267282;28;20083;-61
2021/12/31 14:59:05;;;;;;;13.02;7.40;;;;;;;;;;6270317;28;19928;-60
2021/12/31 15:02:06;;;;;;;;;;;;;;;;;;6269263;28;20052;-60
2021/12/31 15:05:07;;;;;;;13.80;8.90;;;;;;;;;;6269313;28;20023;-60
2021/12/31 15:08:08;;;;;;;13.70;7.95;;;;;;;;;;6267880;28;20121;-60
2021/12/31 15:11:08;;;;;;;14.38;8.07;;;;;;;;;;6269332;28;20080;-62
2021/12/31 15:14:09;;;;;;;13.20;7.13;;;;;;;;;;6263964;28;20049;-60
2021/12/31 15:17:10;;;;;;;14.50;7.82;;;;;;;;;;6269405;28;21238;-60
2021/12/31 15:20:11;;;;;;;14.93;8.90;;;;;;;;;;6272369;28;20802;-59
2021/12/31 15:23:12;;;;;;;14.82;8.20;;;;;;;;;;6264946;28;20122;-59
2021/12/31 15:26:12;;;;;;;14.05;8.60;;;;;;;;;;6270919;28;20088;-61
2021/12/31 15:29:13;;;;;;;17.23;10.38;;;;;;;;;;6264387;28;20057;-60
2021/12/31 15:32:16;;;;;;;15.57;9.27;;;;;;;;;;6262152;28;20430;-61
2021/12/31 15:35:17;;;;;;;14.70;9.38;;;;;;;;;;6262758;28;20075;-62
2021/12/31 15:38:19;;;;;;;18.40;11.48;;;;;;;;;;6266797;28;20067;-61
2021/12/31 15:41:20;;;;;;;16.17;10.20;;;;;;;;;;6268716;28;20130;-60
2021/12/31 15:44:21;;;;;;;15.82;8.32;;;;;;;;;;6263490;28;20063;-62
2021/12/31 15:47:22;;;;;;;16.65;9.45;;;;;;;;;;6271726;28;20484;-60
2021/12/31 15:50:23;;;;;;;14.90;8.65;;;;;;;;;;6272469;28;20051;-62
2021/12/31 15:53:23;;;;;;;16.50;8.35;;;;;;;;;;6265942;28;20049;-61
2021/12/31 15:56:24;;;;;;;16.30;9.20;;;;;;;;;;6270531;28;20055;-59
2021/12/31 15:59:25;;;;;;;15.35;8.50;;;;;;;;;;6272916;28;20149;-60
2021/12/31 16:02:26;;;;;;;15.70;8.57;;;;;;;;;;6262342;28;20080;-60
2021/12/31 16:05:27;;;;;;;15.75;8.57;;;;;;;;;;6268128;28;20049;-61
2021/12/31 16:08:29;;;;;;;15.10;8.77;;;;;;;;;;6267947;28;20053;-60
2021/12/31 16:11:30;;;;;;;16.73;9.55;;;;;;;;;;6271795;28;20056;-60
2021/12/31 16:14:31;;;;;;;13.95;8.10;;;;;;;;;;6261795;28;20050;-61
2021/12/31 16:17:32;;;;;;;18.70;9.38;;;;;;;;;;6266500;28;20053;-60
2021/12/31 16:20:32;;;;;;;14.18;7.82;;;;;;;;;;6271855;28;20557;-60
2021/12/31 16:23:33;;;;;;;16.73;7.95;;;;;;;;;;6271206;28;20040;-58
2021/12/31 16:26:34;;;;;;;16.30;8.77;;;;;;;;;;6273344;28;20399;-54
2021/12/31 16:29:57;;;;;;;14.77;7.82;;;;;;;;;;6273821;28;20347;-61
2021/12/31 16:32:58;;;;;;;15.25;8.80;;;;;;;;;;6273270;28;20049;-55
2021/12/31 16:36:00;;;;;;;18.42;10.90;;;;;;;;;;6272901;28;20059;-59
2021/12/31 16:39:01;;;;;;;;;;;;;;;;;;6274107;28;20083;-57
2021/12/31 16:42:03;;;;;;;16.42;10.27;;;;;;;;;;6269764;28;20019;-55
2021/12/31 16:45:05;;;;;;;12.73;7.13;;;;;;;;;;6270196;28;20102;-55
2021/12/31 16:48:07;;;;;;;13.05;6.82;;;;;;;;;;6271302;28;20049;-60
2021/12/31 16:51:09;;;;;;;13.95;7.15;;;;;;;;;;6270839;28;20930;-59
2021/12/31 16:54:09;;;;;;;14.27;7.00;;;;;;;;;;6267390;28;20451;-60
2021/12/31 16:57:10;;;;;;;11.52;6.40;;;;;;;;;;6268168;28;20114;-62
2021/12/31 17:00:13;;;;;;;12.55;6.28;;;;;;;;;;6274056;28;20778;-59
2021/12/31 17:03:14;;;;;;;10.73;5.78;;;;;;;;;;6266133;28;20053;-61
2021/12/31 17:06:16;;;;;;;10.98;6.80;;;;;;;;;;6273719;28;20080;-61
2021/12/31 17:09:17;;;;;;;15.25;6.88;;;;;;;;;;6267269;28;20156;-58
2021/12/31 17:12:17;;;;;;;12.85;6.35;;;;;;;;;;6266733;28;20053;-58
2021/12/31 17:15:20;;;;;;;13.32;6.90;;;;;;;;;;6273301;28;20604;-61
2021/12/31 17:18:20;;;;;;;14.93;7.55;;;;;;;;;;6267795;28;20063;-60
2021/12/31 17:21:21;;;;;;;12.60;6.50;;;;;;;;;;6266205;28;20045;-57
2021/12/31 17:24:22;;;;;;;12.35;6.88;;;;;;;;;;6277302;28;20044;-57
2021/12/31 17:27:23;;;;;;;11.82;6.90;;;;;;;;;;6278351;28;20132;-63
2021/12/31 17:30:23;;;;;;;13.23;6.75;;;;;;;;;;6280374;28;20407;-62
2021/12/31 17:33:24;;;;;;;14.80;8.40;;;;;;;;;;6274977;28;20044;-60
2021/12/31 17:36:25;;;;;;;11.10;6.95;;;;;;;;;;6275133;28;20061;-60
2021/12/31 17:39:26;;;;;;;13.10;7.07;;;;;;;;;;6280332;28;20047;-61
2021/12/31 17:42:28;;;;;;;13.57;7.65;;;;;;;;;;6273225;28;20475;-60
2021/12/31 17:45:29;;;;;;;11.63;6.57;;;;;;;;;;6278766;28;20144;-58
2021/12/31 17:48:29;;;;;;;12.20;7.47;;;;;;;;;;6272257;28;20048;-60
2021/12/31 17:51:30;;;;;;;15.85;10.07;;;;;;;;;;6265328;28;20052;-60
2021/12/31 17:54:31;;;;;;;13.10;7.30;;;;;;;;;;6274630;28;20580;-59